Terminal Aerodrome Forecast
Issued by NWS Lubbock, TX

Current Version | Previous Version | Text Only | Print | Product List | Glossary On
Versions: 1 2 3 4 5 6 7 8 9 10 11 12 13 14
429
FTUS44 KLUB 270534
TAFLBB
TAF
KLBB 270534Z 2706/2806 13011KT P6SM SCT250 WS008/15045KT
     FM271100 21011KT P6SM SCT150 SCT250
     FM271800 17019KT P6SM SCT120 SCT250
     FM280100 14016KT P6SM SCT120 SCT250=

USA.gov is the U.S. government's official web portal to all federal, state and local government web resources and services.